createdAt,value
2023-05-03T00:03:41.097Z,100902.25
2023-05-03T00:08:44.010Z,100902.50
2023-05-03T00:13:46.757Z,100906.81
2023-05-03T00:18:49.588Z,100903.42
2023-05-03T00:23:52.677Z,100909.29
2023-05-03T00:28:55.523Z,100911.17
2023-05-03T00:33:58.325Z,100916.17
2023-05-03T00:39:01.233Z,100912.98
2023-05-03T00:44:04.277Z,100910.73
2023-05-03T00:49:07.157Z,100909.31
2023-05-03T00:54:11.429Z,100917.08
2023-05-03T00:59:14.593Z,100920.98
2023-05-03T01:04:18.536Z,100924.52
2023-05-03T01:15:17.142Z,100915.23
2023-05-03T01:20:26.877Z,100911.64
2023-05-03T01:25:29.810Z,100918.45
2023-05-03T01:30:33.840Z,100924.45
2023-05-03T01:35:51.697Z,100925.74
2023-05-03T01:41:00.895Z,100923.77
2023-05-03T01:46:03.923Z,100926.23
2023-05-03T01:51:06.964Z,100932.14
2023-05-03T01:56:09.862Z,100936.19
2023-05-03T02:01:13.517Z,100933.87
2023-05-03T02:06:16.520Z,100934.59
2023-05-03T02:11:19.397Z,100931.14
2023-05-03T02:16:22.318Z,100929.27
2023-05-03T02:21:27.256Z,100929.81
2023-05-03T02:26:30.178Z,100928.89
2023-05-03T02:31:33.375Z,100934.16
2023-05-03T02:36:36.391Z,100939.57
2023-05-03T02:41:39.279Z,100943.05
2023-05-03T02:46:42.509Z,100945.80
2023-05-03T02:51:46.113Z,100941.30
2023-05-03T02:56:49.222Z,100942.66
2023-05-03T03:01:52.162Z,100944.56
2023-05-03T03:06:56.914Z,100951.48
2023-05-03T03:12:03.062Z,100949.48
2023-05-03T03:17:12.313Z,100953.96
2023-05-03T03:22:15.519Z,100957.55
2023-05-03T03:27:18.420Z,100961.10
2023-05-03T03:32:22.039Z,100963.04
2023-05-03T03:37:24.946Z,100963.09
2023-05-03T03:42:27.956Z,100961.36
2023-05-03T03:47:30.991Z,100965.20
2023-05-03T03:52:33.966Z,100967.17
2023-05-03T03:57:36.889Z,100972.59
2023-05-03T04:02:39.832Z,100977.43
2023-05-03T04:07:42.797Z,100984.44
2023-05-03T04:12:45.683Z,100985.88
2023-05-03T04:17:49.719Z,100987.95
2023-05-03T04:22:52.824Z,100989.27
2023-05-03T04:27:55.849Z,100986.27
2023-05-03T04:33:00.393Z,100983.63
2023-05-03T04:38:04.407Z,100982.13
2023-05-03T04:43:07.660Z,100986.23
2023-05-03T04:48:10.627Z,100994.04
2023-05-03T04:53:13.522Z,100995.80
2023-05-03T04:58:16.436Z,100993.12
2023-05-03T05:03:19.431Z,100998.14
2023-05-03T05:08:22.445Z,101002.39
2023-05-03T05:13:25.346Z,101009.10
2023-05-03T05:18:28.258Z,101015.17
2023-05-03T05:23:31.660Z,101017.23
2023-05-03T05:28:34.570Z,101023.88
2023-05-03T05:33:37.466Z,101031.79
2023-05-03T05:38:41.189Z,101038.20
2023-05-03T05:43:45.119Z,101041.32
2023-05-03T05:48:48.022Z,101046.61
2023-05-03T05:53:51.035Z,101051.64
2023-05-03T05:58:54.349Z,101056.20
2023-05-03T06:03:57.250Z,101057.75
2023-05-03T06:09:02.833Z,101057.35
2023-05-03T06:14:10.050Z,101059.85
2023-05-03T06:19:13.132Z,101072.75
2023-05-03T06:24:21.479Z,101079.52
2023-05-03T06:29:25.029Z,101081.83
2023-05-03T06:34:27.889Z,101087.96
2023-05-03T06:39:31.399Z,101097.58
2023-05-03T06:44:34.308Z,101094.88
2023-05-03T06:49:37.314Z,101088.30
2023-05-03T06:54:40.642Z,101090.85
2023-05-03T06:59:43.839Z,101088.35
2023-05-03T07:04:46.754Z,101091.21
2023-05-03T07:09:49.854Z,101098.38
2023-05-03T07:14:52.754Z,101101.55
2023-05-03T07:19:55.659Z,101103.69
2023-05-03T07:24:59.920Z,101104.68
2023-05-03T07:30:04.856Z,101110.69
2023-05-03T07:35:09.450Z,101109.30
2023-05-03T07:40:13.059Z,101104.98
2023-05-03T07:45:16.119Z,101103.73
2023-05-03T07:50:19.121Z,101105.66
2023-05-03T07:55:22.343Z,101109.42
2023-05-03T08:00:27.055Z,101112.28
2023-05-03T08:05:30.576Z,101112.96
2023-05-03T08:10:38.002Z,101109.90
2023-05-03T08:15:41.040Z,101112.45
2023-05-03T08:20:45.122Z,101115.62
2023-05-03T08:25:49.133Z,101111.56
2023-05-03T08:30:52.613Z,101115.17
2023-05-03T08:35:55.606Z,101120.04
2023-05-03T08:41:05.143Z,101122.52
2023-05-03T08:46:12.536Z,101127.19
2023-05-03T08:51:17.645Z,101131.52
2023-05-03T08:56:29.333Z,101131.71
2023-05-03T09:01:32.294Z,101131.20
2023-05-03T09:06:35.786Z,101135.70
2023-05-03T09:11:39.702Z,101136.11
2023-05-03T09:16:47.553Z,101144.16
2023-05-03T09:21:51.032Z,101142.52
2023-05-03T09:26:59.046Z,101146.46
2023-05-03T09:32:06.467Z,101150.34
2023-05-03T09:37:10.073Z,101149.79
2023-05-03T09:42:17.687Z,101149.86
2023-05-03T09:47:21.825Z,101142.67
2023-05-03T09:52:29.339Z,101144.45
2023-05-03T09:57:33.240Z,101142.73
2023-05-03T10:02:36.594Z,101135.52
2023-05-03T10:07:42.475Z,101136.59
2023-05-03T10:12:46.043Z,101140.02
2023-05-03T10:17:52.915Z,101140.80
2023-05-03T10:23:05.309Z,101139.48
2023-05-03T10:28:09.818Z,101139.14
2023-05-03T10:33:12.899Z,101135.80
2023-05-03T10:38:17.309Z,101135.23
2023-05-03T10:43:32.495Z,101125.17
2023-05-03T10:48:36.058Z,101133.12
2023-05-03T10:53:42.141Z,101130.61
2023-05-03T10:58:47.966Z,101131.20
2023-05-03T11:04:08.687Z,101128.46
2023-05-03T11:09:14.870Z,101130.95
2023-05-03T11:14:17.864Z,101129.06
2023-05-03T11:19:21.028Z,101127.54
2023-05-03T11:24:24.070Z,101132.95
2023-05-03T11:29:27.486Z,101132.45
2023-05-03T11:34:31.415Z,101134.82
2023-05-03T11:39:34.423Z,101139.19
2023-05-03T11:44:38.043Z,101137.39
2023-05-03T11:49:41.182Z,101137.28
2023-05-03T11:54:44.297Z,101139.47
2023-05-03T11:59:49.831Z,101134.23
2023-05-03T12:04:53.468Z,101130.68
2023-05-03T12:10:10.675Z,101132.08
2023-05-03T12:15:30.089Z,101135.23
2023-05-03T12:21:28.416Z,101135.91
2023-05-03T12:25:57.322Z,101138.20
2023-05-03T12:31:00.968Z,101135.98
2023-05-03T12:36:07.834Z,101135.35
2023-05-03T12:41:15.759Z,101137.14
2023-05-03T12:46:34.130Z,101143.03
2023-05-03T12:51:42.332Z,101147.08
2023-05-03T12:56:48.164Z,101141.88
2023-05-03T13:07:00.278Z,101145.21
2023-05-03T13:12:04.170Z,101143.94
2023-05-03T13:17:07.694Z,101138.55
2023-05-03T13:22:11.821Z,101133.73
2023-05-03T13:27:16.676Z,101126.38
2023-05-03T13:32:19.839Z,101125.15
2023-05-03T13:37:23.627Z,101125.16
2023-05-03T13:42:26.532Z,101119.15
2023-05-03T13:47:41.893Z,101119.52
2023-05-03T13:52:52.519Z,101114.98
2023-05-03T13:57:55.411Z,101112.35
2023-05-03T14:02:58.413Z,101103.90
2023-05-03T14:08:01.424Z,101103.45
2023-05-03T14:13:04.346Z,101105.85
2023-05-03T14:18:09.058Z,101103.97
2023-05-03T14:23:11.999Z,101109.98
2023-05-03T14:28:14.883Z,101117.47
2023-05-03T14:33:17.981Z,101118.55
2023-05-03T14:38:21.106Z,101119.12
2023-05-03T14:43:24.005Z,101118.58
2023-05-03T14:48:27.218Z,101120.92
2023-05-03T14:53:31.467Z,101120.20
2023-05-03T14:58:34.361Z,101121.33
2023-05-03T15:03:37.262Z,101118.61
2023-05-03T15:08:40.283Z,101117.63
2023-05-03T15:13:43.518Z,101125.10
2023-05-03T15:18:48.732Z,101129.41
2023-05-03T15:23:52.020Z,101127.32
2023-05-03T15:28:55.067Z,101125.39
2023-05-03T15:33:58.418Z,101125.72
2023-05-03T15:39:02.209Z,101127.98
2023-05-03T15:44:07.428Z,101125.13
2023-05-03T15:49:12.105Z,101128.89
2023-05-03T15:54:15.239Z,101131.74
2023-05-03T15:59:19.044Z,101128.59
2023-05-03T16:04:22.362Z,101124.70
2023-05-03T16:09:25.298Z,101125.05
2023-05-03T16:14:28.273Z,101124.98
2023-05-03T16:19:32.543Z,101125.29
2023-05-03T16:24:35.826Z,101126.34
2023-05-03T16:29:39.268Z,101126.39
2023-05-03T16:34:42.251Z,101126.52
2023-05-03T16:39:45.222Z,101124.41
2023-05-03T16:44:48.457Z,101126.24
2023-05-03T16:49:51.669Z,101129.40
2023-05-03T16:54:55.372Z,101130.16
2023-05-03T16:59:58.973Z,101127.16
2023-05-03T17:05:05.406Z,101127.20
2023-05-03T17:10:09.233Z,101127.91
2023-05-03T17:15:12.953Z,101126.27
2023-05-03T17:20:16.685Z,101130.09
2023-05-03T17:25:19.774Z,101132.38
2023-05-03T17:30:22.784Z,101136.48
2023-05-03T17:35:26.397Z,101137.76
2023-05-03T17:40:29.320Z,101137.45
2023-05-03T17:45:32.527Z,101138.77
2023-05-03T17:50:35.521Z,101137.47
2023-05-03T17:55:38.838Z,101139.40
2023-05-03T18:00:41.742Z,101139.75
2023-05-03T18:05:45.641Z,101147.84
2023-05-03T18:10:49.219Z,101147.96
2023-05-03T18:15:52.107Z,101155.23
2023-05-03T18:21:02.433Z,101156.89
2023-05-03T18:26:08.080Z,101159.70
2023-05-03T18:31:11.299Z,101166.63
2023-05-03T18:36:15.897Z,101172.36
2023-05-03T18:41:19.010Z,101176.84
2023-05-03T18:46:22.208Z,101180.63
2023-05-03T18:51:25.219Z,101185.43
2023-05-03T18:56:30.372Z,101192.77
2023-05-03T19:01:34.141Z,101197.02
2023-05-03T19:06:37.623Z,101194.84
2023-05-03T19:11:42.856Z,101192.98
2023-05-03T19:16:45.943Z,101196.25
2023-05-03T19:21:48.892Z,101198.48
2023-05-03T19:26:52.417Z,101199.59
2023-05-03T19:31:55.530Z,101199.11
2023-05-03T19:36:58.428Z,101199.44
2023-05-03T19:42:02.053Z,101200.38
2023-05-03T19:47:04.958Z,101200.10
2023-05-03T19:52:08.164Z,101199.09
2023-05-03T19:57:12.199Z,101200.48
2023-05-03T20:02:15.104Z,101202.32
2023-05-03T20:07:18.532Z,101209.13
2023-05-03T20:12:21.526Z,101210.56
2023-05-03T20:17:24.562Z,101210.76
2023-05-03T20:22:27.533Z,101209.34
2023-05-03T20:27:30.798Z,101210.36
2023-05-03T20:32:36.483Z,101210.64
2023-05-03T20:37:40.067Z,101212.30
2023-05-03T20:42:42.947Z,101214.64
2023-05-03T20:47:45.847Z,101212.45
2023-05-03T20:52:48.747Z,101211.23
2023-05-03T20:57:51.965Z,101208.04
2023-05-03T21:02:54.964Z,101210.23
2023-05-03T21:07:58.007Z,101215.40
2023-05-03T21:13:01.426Z,101216.73
2023-05-03T21:18:06.804Z,101219.07
2023-05-03T21:23:09.853Z,101221.00
2023-05-03T21:28:12.757Z,101222.20
2023-05-03T21:33:16.904Z,101221.05
2023-05-03T21:38:20.010Z,101222.71
2023-05-03T21:43:22.934Z,101220.83
2023-05-03T21:48:25.820Z,101218.73
2023-05-03T21:53:29.031Z,101224.03
2023-05-03T21:58:31.926Z,101226.78
2023-05-03T22:03:34.886Z,101228.20
2023-05-03T22:08:38.635Z,101233.31
2023-05-03T22:13:54.456Z,101229.46
2023-05-03T22:18:59.001Z,101226.67
2023-05-03T22:24:01.981Z,101227.92
2023-05-03T22:29:05.270Z,101231.66
2023-05-03T22:34:08.273Z,101230.06
2023-05-03T22:39:11.539Z,101226.34
2023-05-03T22:44:14.547Z,101224.66
2023-05-03T22:49:17.449Z,101220.75
2023-05-03T22:54:21.989Z,101217.88
2023-05-03T22:59:25.007Z,101212.91
2023-05-03T23:04:27.905Z,101211.55
2023-05-03T23:09:31.158Z,101208.52
2023-05-03T23:14:34.019Z,101205.14
2023-05-03T23:19:37.333Z,101198.23
2023-05-03T23:24:40.771Z,101199.10
2023-05-03T23:29:43.655Z,101200.12
2023-05-03T23:34:46.765Z,101201.30
2023-05-03T23:39:49.668Z,101197.31
2023-05-03T23:44:55.747Z,101197.88
2023-05-03T23:49:58.960Z,101196.38
2023-05-03T23:55:02.693Z,101198.48
